Statesville West, North Carolina
Current Conditions -  °F | °C
As of 10:35 AM on Friday 28 Nov 2014 (Local Time) from KSVH Reporting Station
Clear Clear  
Wind Chill: 32°   Ceiling: Unl
Heat Index: 37°   Visibility: 10mi
Dew Point: 19°   Wind: 6mph
Humidity: 49%   Direction: 310°NW
Pressure: 30.37"   Gusts: NA
Location:  35.8306°N, 80.9003°W
Report Text: KSVH 281535Z AUTO 31005KT 10SM CLR 03/M07 A3037 RMK AO2 T00261073
Loading
Personal Weather Stations






























Interactive Weather Map New forecast layout! Learn more

10-Day Weather Forecast

Advertisements
Track Severe Weather on mobile